Madawaska, ME

8:41 PM EST on February 06, 2016 (GMT -0500)
W1AYX | | Change Station
CLOSE
Current Station
Personal Weather Station
Location: Madawaska, ME
Elevation: 545 ft
Nearby Weather Stations

Elev 545 ft 47.35 °N, 68.28 °W | Updated 2 seconds ago

Light Snow
Light Snow
25.2 °F
Feels Like 25 °F
N
1.8
Wind Variable Wind from NE
Gusts 2.5 mph

Today
High -- | Low -- °F
--% Chance of Precip.
Yesterday
High -- | Low -- °F
Precip. -- in
Pressure 30.04 in
Visibility 8.0 miles
Clouds Few 2400 ft
Mostly Cloudy 4000 ft
Overcast 7000 ft
Windchill 25 °F
Dew Point 16 °F
Humidity 69%
Rainfall 0.00 in
Snow Depth Not available.
6:52 AM 4:42 PM
Waning Crescent, 3% visible
METAR KFVE 070053Z AUTO 18011KT 8SM -SN FEW024 BKN040 OVC070 M05/M08 A2998 RMK AO2 SNB20 SLP170 P0000 T10501078
Pressure 30.04 in
Visibility 8.0 miles
Clouds Few 2400 ft
Mostly Cloudy 4000 ft
Overcast 7000 ft
Windchill 25 °F
Dew Point 16 °F
Humidity 69%
Rainfall 0.00 in
Snow Depth Not available.
6:52 AM 4:42 PM
Waning Crescent, 3% visible
METAR KFVE 070053Z AUTO 18011KT 8SM -SN FEW024 BKN040 OVC070 M05/M08 A2998 RMK AO2 SNB20 SLP170 P0000 T10501078

10-Day Weather Forecast

Almanac

Astronomy

Feb. 06, 2016 Rise Set
Actual Time
Civil Twilight
Nautical Twilight
Astronomical Twilight
Moon
Length of Visible Light
Length of Day
Tomorrow will be .
, % of the Moon is Illuminated

Today's Extremes

State Highs State Lows

Community

WunderPhotos

Upload Photos

1,891,123 photos uploaded!

WunderBlog® & News

Nearby

Air Quality

  Air Quality AQ Index Pollutant
Not available.

Snow Depth

Station Depth Elevation

Earthquake Activity

City Distance Mag. Time & Date
Minimum magnitude displayed is 2.5.

Coastal Water Temperatures

Place Temperature

Stations

Nearby Weather Stations

Station Location Temp. Windchill Dew Point Humidity Wind Precip. Elev Updated Type
                   

Watches & Warnings

There are currently no watches in effect.